Time;durP1;ratioP1;P1;durP2;ratioP2;P2;SDS_P1;SDS_P2;PMS_P1;PMS_P2;Temp;Humidity;BMP_temperature;BMP_pressure;BME280_temperature;BME280_humidity;BME280_pressure;Samples;Min_cycle;Max_cycle;Signal;HPM_P1;HPM_P2
2022/07/17 00:01:30;;;;;;;;;;;;;;;13.12;59.73;101342.11;1784885;79;20447;-71
2022/07/17 00:03:57;;;;;;;;;;;;;;;13.14;59.88;101345.09;1785074;79;21855;-71
2022/07/17 00:06:24;;;;;;;;;;;;;;;13.12;59.76;101344.74;1784868;80;20190;-71
2022/07/17 00:08:50;;;;;;;;;;;;;;;13.06;59.31;101349.75;1784992;79;20127;-71
2022/07/17 00:11:17;;;;;;;;;;;;;;;13.09;59.32;101351.42;1785063;80;20174;-71
2022/07/17 00:13:44;;;;;;;;;;;;;;;13.15;60.04;101345.95;1785247;80;20448;-71
2022/07/17 00:16:11;;;;;;;;;;;;;;;13.25;59.85;101351.33;1784985;79;21113;-71
2022/07/17 00:18:37;;;;;;;;;;;;;;;13.31;59.87;101348.98;1785078;79;20173;-71
2022/07/17 00:21:04;;;;;;;;;;;;;;;13.24;59.54;101351.37;1784893;79;20170;-71
2022/07/17 00:23:31;;;;;;;;;;;;;;;13.23;59.21;101357.56;1785313;80;20134;-70
2022/07/17 00:25:58;;;;;;;;;;;;;;;13.24;59.26;101357.95;1784979;79;20566;-71
2022/07/17 00:28:25;;;;;;;;;;;;;;;13.24;59.05;101356.63;1785237;80;21091;-71
2022/07/17 00:30:52;;;;;;;;;;;;;;;13.23;58.86;101355.78;1784913;80;20162;-71
2022/07/17 00:33:18;;;;;;;;;;;;;;;13.24;58.90;101358.80;1784978;80;20162;-71
2022/07/17 00:35:45;;;;;;;;;;;;;;;13.26;58.78;101357.48;1780784;80;20131;-71
2022/07/17 00:38:13;;;;;;;;;;;;;;;13.29;59.29;101353.44;1779609;80;20471;-71
2022/07/17 00:40:40;;;;;;;;;;;;;;;13.33;59.64;101351.97;1779917;80;21157;-70
2022/07/17 00:43:07;;;;;;;;;;;;;;;13.32;59.62;101360.77;1779827;80;20131;-70
2022/07/17 00:45:33;;;;;;;;;;;;;;;13.35;59.35;101362.44;1779726;80;20142;-71
2022/07/17 00:48:06;;;;;;;;;;;;;;;13.36;59.25;101361.55;1762322;80;20168;-71
2022/07/17 00:50:35;;;;;;;;;;;;;;;13.38;58.96;101363.22;1777187;79;20478;-71
2022/07/17 00:53:03;;;;;;;;;;;;;;;13.37;59.39;101365.89;1780088;79;21133;-71
2022/07/17 00:55:30;;;;;;;;;;;;;;;13.34;59.38;101367.31;1779574;80;20542;-71
2022/07/17 00:58:00;;;;;;;;;;;;;;;13.33;58.80;101365.56;1779915;80;20158;-71
2022/07/17 01:00:26;;;;;;;;;;;;;;;13.27;59.05;101367.95;1779743;80;20601;-71
2022/07/17 01:02:54;;;;;;;;;;;;;;;13.22;58.66;101368.55;1780100;80;20464;-71
2022/07/17 01:05:22;;;;;;;;;;;;;;;13.20;58.64;101372.14;1779667;80;21107;-71
2022/07/17 01:07:49;;;;;;;;;;;;;;;13.16;58.92;101374.88;1779993;80;20162;-71
2022/07/17 01:10:17;;;;;;;;;;;;;;;13.16;59.04;101375.30;1779924;80;20173;-70
2022/07/17 01:12:45;;;;;;;;;;;;;;;13.14;58.69;101377.14;1780111;79;20179;-70
2022/07/17 01:15:13;;;;;;;;;;;;;;;13.08;58.82;101380.84;1779901;80;20459;-71
2022/07/17 01:17:40;;;;;;;;;;;;;;;13.02;58.57;101379.69;1779760;80;21198;-71
2022/07/17 01:20:08;;;;;;;;;;;;;;;12.97;58.58;101377.69;1777718;80;20190;-71
2022/07/17 01:22:46;;;;;;;;;;;;;;;12.92;58.66;101387.48;1751131;80;20130;-70
2022/07/17 01:25:14;;;;;;;;;;;;;;;12.86;58.58;101387.69;1754502;80;20132;-71
2022/07/17 01:27:41;;;;;;;;;;;;;;;12.78;58.72;101397.12;1759050;80;20569;-71
2022/07/17 01:30:09;;;;;;;;;;;;;;;12.73;58.84;101393.77;1758439;80;21119;-70
2022/07/17 01:32:39;;;;;;;;;;;;;;;12.73;59.36;101399.02;1779787;80;20158;-71
2022/07/17 01:35:07;;;;;;;;;;;;;;;12.73;59.07;101393.77;1779962;80;20166;-70
2022/07/17 01:37:34;;;;;;;;;;;;;;;12.69;59.27;101388.17;1763984;80;20461;-70
2022/07/17 01:40:01;;;;;;;;;;;;;;;12.67;59.11;101397.89;1774618;80;21202;-70
2022/07/17 01:42:28;;;;;;;;;;;;;;;12.64;59.17;101397.53;1779837;80;21088;-70
2022/07/17 01:44:56;;;;;;;;;;;;;;;12.61;58.99;101397.62;1779794;80;20150;-71
2022/07/17 01:47:22;;;;;;;;;;;;;;;12.56;59.26;101398.67;1780073;80;20161;-70
2022/07/17 01:49:52;;;;;;;;;;;;;;;12.55;59.24;101395.61;1779921;80;20466;-70
2022/07/17 01:52:19;;;;;;;;;;;;;;;12.54;59.15;101393.44;1779928;80;21421;-70
2022/07/17 01:54:46;;;;;;;;;;;;;;;12.52;59.32;101393.08;1762169;80;21059;-71
2022/07/17 01:57:13;;;;;;;;;;;;;;;12.51;59.88;101398.80;1776039;80;20459;-70
2022/07/17 01:59:40;;;;;;;;;;;;;;;12.57;60.17;101391.17;1779790;80;20170;-70
2022/07/17 02:02:07;;;;;;;;;;;;;;;12.59;59.85;101394.62;1758061;80;20457;-70
2022/07/17 02:04:35;;;;;;;;;;;;;;;12.56;59.63;101394.27;1779791;80;20567;-71
2022/07/17 02:07:03;;;;;;;;;;;;;;;12.54;59.63;101392.13;1779875;80;21936;-71
2022/07/17 02:09:29;;;;;;;;;;;;;;;12.52;59.81;101394.39;1779736;80;20580;-70
2022/07/17 02:11:56;;;;;;;;;;;;;;;12.50;59.86;101395.31;1779596;80;20117;-71
2022/07/17 02:14:23;;;;;;;;;;;;;;;12.49;59.93;101392.25;1779749;80;20193;-71
2022/07/17 02:16:50;;;;;;;;;;;;;;;12.47;60.16;101390.56;1779819;80;21180;-70
2022/07/17 02:19:16;;;;;;;;;;;;;;;12.43;60.50;101392.89;1780002;80;21039;-71
2022/07/17 02:21:43;;;;;;;;;;;;;;;12.45;60.56;101391.95;1779814;80;20150;-71
2022/07/17 02:24:10;;;;;;;;;;;;;;;12.52;60.85;101399.64;1779944;80;20177;-71
2022/07/17 02:26:36;;;;;;;;;;;;;;;12.54;60.51;101397.84;1779914;80;20169;-71
2022/07/17 02:29:03;;;;;;;;;;;;;;;12.53;60.52;101396.13;1760492;80;21125;-75
2022/07/17 02:31:30;;;;;;;;;;;;;;;12.51;60.34;101398.80;1777942;80;21046;-71
2022/07/17 02:33:57;;;;;;;;;;;;;;;12.47;60.34;101399.77;1780101;80;20142;-71
2022/07/17 02:36:24;;;;;;;;;;;;;;;12.42;60.31;101396.44;1783831;79;20177;-71
2022/07/17 02:38:50;;;;;;;;;;;;;;;12.40;60.88;101399.09;1785375;80;20189;-70
2022/07/17 02:41:17;;;;;;;;;;;;;;;12.43;60.72;101398.15;1784986;80;20609;-71
2022/07/17 02:43:44;;;;;;;;;;;;;;;12.41;60.96;101405.22;1785075;80;21118;-71
2022/07/17 02:46:13;;;;;;;;;;;;;;;12.36;61.00;101397.91;1785325;80;20154;-71
2022/07/17 02:48:41;;;;;;;;;;;;;;;12.33;61.34;101400.63;1785397;79;20134;-71
2022/07/17 02:51:08;;;;;;;;;;;;;;;12.30;61.07;101403.34;1785107;80;20169;-71
2022/07/17 02:53:34;;;;;;;;;;;;;;;12.28;61.57;101403.41;1785239;80;20481;-70
2022/07/17 02:56:01;;;;;;;;;;;;;;;12.27;61.71;101400.34;1784983;80;21102;-70
2022/07/17 02:58:29;;;;;;;;;;;;;;;12.28;61.44;101404.26;1785200;80;20170;-70
2022/07/17 03:00:55;;;;;;;;;;;;;;;12.27;61.54;101404.28;1785031;80;20127;-71
2022/07/17 03:03:22;;;;;;;;;;;;;;;12.24;61.65;101407.00;1785357;80;20174;-71
2022/07/17 03:05:49;;;;;;;;;;;;;;;12.27;61.75;101399.03;1785095;79;20331;-70
2022/07/17 03:08:15;;;;;;;;;;;;;;;12.28;61.74;101403.41;1785307;80;21136;-70
2022/07/17 03:10:42;;;;;;;;;;;;;;;12.31;62.05;101408.57;1782314;80;20197;-76
2022/07/17 03:13:09;;;;;;;;;;;;;;;12.33;62.01;101401.94;1763803;80;20148;-71
2022/07/17 03:15:36;;;;;;;;;;;;;;;12.32;62.01;101406.34;1757299;79;20464;-75
2022/07/17 03:18:03;;;;;;;;;;;;;;;12.28;61.82;101402.95;1753915;79;20584;-70
2022/07/17 03:20:30;;;;;;;;;;;;;;;12.26;62.19;101403.89;1753860;79;21198;-71
2022/07/17 03:22:56;;;;;;;;;;;;;;;12.27;62.41;101408.23;1764421;80;20141;-71
2022/07/17 03:25:23;;;;;;;;;;;;;;;12.30;62.23;101408.60;1762525;79;20140;-71
2022/07/17 03:27:50;;;;;;;;;;;;;;;12.26;62.32;101410.00;1772732;79;20164;-76
2022/07/17 03:30:16;;;;;;;;;;;;;;;12.27;62.73;101413.03;1754557;80;21262;-71
2022/07/17 03:32:43;;;;;;;;;;;;;;;12.28;62.54;101409.97;1763911;79;21199;-76
2022/07/17 03:35:10;;;;;;;;;;;;;;;12.26;62.45;101407.83;1758937;80;20198;-71
2022/07/17 03:37:37;;;;;;;;;;;;;;;12.24;62.39;101409.63;1753848;80;20208;-76
2022/07/17 03:40:06;;;;;;;;;;;;;;;12.20;62.45;101406.23;1753944;80;20304;-75
2022/07/17 03:42:33;;;;;;;;;;;;;;;12.16;62.67;101410.30;1753992;80;20582;-76
2022/07/17 03:44:59;;;;;;;;;;;;;;;12.16;62.99;101412.92;1753870;80;21188;-75
2022/07/17 03:47:26;;;;;;;;;;;;;;;12.19;63.06;101418.98;1772092;80;20169;-71
2022/07/17 03:49:53;;;;;;;;;;;;;;;12.22;63.33;101413.64;1772880;79;20420;-71
2022/07/17 03:52:20;;;;;;;;;;;;;;;12.23;63.12;101414.03;1753984;80;20164;-71
2022/07/17 03:54:46;;;;;;;;;;;;;;;12.24;62.98;101421.46;1753916;80;20481;-71
2022/07/17 03:57:13;;;;;;;;;;;;;;;12.23;62.91;101427.17;1771015;80;21750;-71
2022/07/17 03:59:40;;;;;;;;;;;;;;;12.21;63.18;101431.61;1753799;80;20164;-74
2022/07/17 04:02:06;;;;;;;;;;;;;;;12.22;63.50;101426.78;1754187;79;20458;-71
2022/07/17 04:04:33;;;;;;;;;;;;;;;12.26;63.58;101427.55;1764001;80;20153;-77
2022/07/17 04:06:59;;;;;;;;;;;;;;;12.31;63.45;101430.06;1754020;80;21256;-70
2022/07/17 04:09:26;;;;;;;;;;;;;;;12.33;63.45;101429.54;1753854;80;21100;-71
2022/07/17 04:11:53;;;;;;;;;;;;;;;12.35;63.53;101430.37;1754075;79;20132;-76
2022/07/17 04:14:19;;;;;;;;;;;;;;;12.39;63.80;101430.70;1753895;79;20200;-73
2022/07/17 04:16:46;;;;;;;;;;;;;;;12.44;63.78;101432.73;1754204;80;20164;-71
2022/07/17 04:19:13;;;;;;;;;;;;;;;12.48;63.76;101433.92;1753807;80;20548;-72
2022/07/17 04:21:40;;;;;;;;;;;;;;;12.55;63.79;101442.95;1755112;79;21950;-70
2022/07/17 04:24:08;;;;;;;;;;;;;;;12.60;63.99;101434.48;1765970;79;20174;-70
2022/07/17 04:26:35;;;;;;;;;;;;;;;12.68;64.16;101436.44;1764905;80;20201;-71
2022/07/17 04:29:03;;;;;;;;;;;;;;;12.72;63.87;101434.99;1766466;80;20163;-70
2022/07/17 04:31:30;;;;;;;;;;;;;;;12.78;63.87;101440.98;1764799;80;20694;-70
2022/07/17 04:33:57;;;;;;;;;;;;;;;12.84;63.80;101437.70;1767063;79;21185;-70
2022/07/17 04:36:24;;;;;;;;;;;;;;;12.89;63.71;101441.53;1763639;79;20175;-70
2022/07/17 04:38:52;;;;;;;;;;;;;;;12.94;63.61;101444.86;1760551;80;20172;-71
2022/07/17 04:41:19;;;;;;;;;;;;;;;13.01;63.71;101446.41;1761100;80;20177;-73
2022/07/17 04:43:45;;;;;;;;;;;;;;;13.07;63.72;101447.98;1762514;80;20487;-71
2022/07/17 04:46:12;;;;;;;;;;;;;;;13.12;63.72;101450.89;1759306;79;21047;-70
2022/07/17 04:48:39;;;;;;;;;;;;;;;13.18;63.65;101453.32;1761035;80;20201;-71
2022/07/17 04:51:07;;;;;;;;;;;;;;;13.24;63.70;101454.05;1759404;80;20174;-70
2022/07/17 04:53:35;;;;;;;;;;;;;;;13.29;63.64;101455.66;1760993;80;20250;-71
2022/07/17 04:56:02;;;;;;;;;;;;;;;13.33;63.42;101461.25;1763995;80;20504;-71
2022/07/17 04:58:29;;;;;;;;;;;;;;;13.39;63.15;101462.83;1763991;80;20623;-71
2022/07/17 05:00:55;;;;;;;;;;;;;;;13.42;63.22;101461.87;1761868;80;20158;-70
2022/07/17 05:03:22;;;;;;;;;;;;;;;13.46;63.25;101470.06;1761281;80;20422;-71
2022/07/17 05:05:48;;;;;;;;;;;;;;;13.50;62.94;101472.56;1758463;80;20174;-71
2022/07/17 05:08:16;;;;;;;;;;;;;;;13.53;62.97;101469.83;1760113;80;20557;-70
2022/07/17 05:10:43;;;;;;;;;;;;;;;13.57;63.10;101475.84;1760762;80;21179;-71
2022/07/17 05:13:12;;;;;;;;;;;;;;;13.64;63.12;101473.89;1760261;80;20094;-70
2022/07/17 05:15:38;;;;;;;;;;;;;;;13.67;62.97;101472.02;1761027;80;20426;-70
2022/07/17 05:18:05;;;;;;;;;;;;;;;13.71;62.92;101471.44;1760499;80;20623;-69
2022/07/17 05:20:32;;;;;;;;;;;;;;;13.76;62.99;101482.23;1755873;80;20449;-70
2022/07/17 05:23:00;;;;;;;;;;;;;;;13.81;63.02;101488.69;1759268;80;21911;-71
2022/07/17 05:25:27;;;;;;;;;;;;;;;13.84;62.71;101489.44;1759580;79;20203;-70
2022/07/17 05:27:53;;;;;;;;;;;;;;;13.88;62.80;101489.33;1763390;80;20173;-73
2022/07/17 05:30:20;;;;;;;;;;;;;;;13.89;62.73;101493.25;1761867;80;20312;-70
2022/07/17 05:32:47;;;;;;;;;;;;;;;13.92;62.60;101497.09;1762248;80;20657;-73
2022/07/17 05:35:13;;;;;;;;;;;;;;;13.94;62.54;101497.91;1760391;80;21026;-73
2022/07/17 05:37:40;;;;;;;;;;;;;;;13.97;62.57;101504.86;1761336;80;20432;-73
2022/07/17 05:40:08;;;;;;;;;;;;;;;13.99;62.60;101503.86;1759014;80;20162;-71
2022/07/17 05:42:35;;;;;;;;;;;;;;;14.05;62.59;101502.83;1761192;80;20422;-70
2022/07/17 05:45:03;;;;;;;;;;;;;;;14.08;62.40;101508.42;1747084;80;20465;-73
2022/07/17 05:47:29;;;;;;;;;;;;;;;14.10;62.43;101506.60;1746321;80;21173;-70
2022/07/17 05:49:56;;;;;;;;;;;;;;;14.14;62.53;101502.50;1746436;80;20179;-70
2022/07/17 05:52:23;;;;;;;;;;;;;;;14.20;62.66;101506.70;1758967;80;20181;-70
2022/07/17 05:54:51;;;;;;;;;;;;;;;14.26;62.57;101506.48;1748200;80;20192;-71
2022/07/17 05:57:18;;;;;;;;;;;;;;;14.31;62.65;101510.29;1746371;80;20512;-70
2022/07/17 05:59:44;;;;;;;;;;;;;;;14.37;62.51;101520.16;1746310;80;21197;-71
2022/07/17 06:02:11;;;;;;;;;;;;;;;14.43;62.44;101522.57;1746966;80;20177;-70
2022/07/17 06:04:38;;;;;;;;;;;;;;;14.48;62.39;101523.28;1750637;80;20176;-71
2022/07/17 06:07:04;;;;;;;;;;;;;;;14.55;62.23;101529.68;1767952;80;20228;-71
2022/07/17 06:09:32;;;;;;;;;;;;;;;14.59;62.16;101526.03;1746401;80;20638;-73
2022/07/17 06:11:58;;;;;;;;;;;;;;;14.64;62.04;101529.38;1752424;79;21982;-80
2022/07/17 06:14:25;;;;;;;;;;;;;;;14.68;62.19;101532.28;1758697;80;20196;-81
2022/07/17 06:16:51;;;;;;;;;;;;;;;14.72;62.04;101536.09;1751197;80;20196;-79
2022/07/17 06:19:18;;;;;;;;;;;;;;;14.78;62.11;101542.07;1755565;80;20282;-76
2022/07/17 06:21:45;;;;;;;;;;;;;;;14.84;62.07;101537.88;1767213;80;20415;-73
2022/07/17 06:24:11;;;;;;;;;;;;;;;14.89;62.08;101542.07;1746180;80;21091;-73
2022/07/17 06:26:40;;;;;;;;;;;;;;;14.97;62.17;101539.16;1755099;80;20175;-74
2022/07/17 06:29:06;;;;;;;;;;;;;;;15.05;62.15;101546.80;1746137;80;20200;-83
2022/07/17 06:31:33;;;;;;;;;;;;;;;15.11;61.88;101545.23;1746325;80;20215;-73
2022/07/17 06:34:00;;;;;;;;;;;;;;;15.17;61.94;101547.18;1746701;80;20445;-73
2022/07/17 06:36:26;;;;;;;;;;;;;;;15.26;61.96;101543.78;1749453;79;21172;-76
2022/07/17 06:38:53;;;;;;;;;;;;;;;15.34;61.87;101542.56;1759316;80;20509;-73
2022/07/17 06:41:20;;;;;;;;;;;;;;;15.43;61.74;101549.73;1752693;80;20192;-74
2022/07/17 06:43:46;;;;;;;;;;;;;;;15.49;61.48;101550.81;1746263;80;20188;-74
2022/07/17 06:46:13;;;;;;;;;;;;;;;15.53;61.12;101545.83;1755715;80;20586;-72
2022/07/17 06:48:39;;;;;;;;;;;;;;;15.57;61.13;101543.45;1746257;80;21197;-75
2022/07/17 06:51:06;;;;;;;;;;;;;;;15.62;61.13;101543.66;1763769;80;20149;-75
2022/07/17 06:53:33;;;;;;;;;;;;;;;15.69;61.14;101545.66;1748508;80;20243;-73
2022/07/17 06:56:00;;;;;;;;;;;;;;;15.74;60.90;101548.97;1746414;80;20175;-72
2022/07/17 06:58:26;;;;;;;;;;;;;;;15.79;60.75;101545.66;1752818;80;21677;-80
2022/07/17 07:00:54;;;;;;;;;;;;;;;15.85;60.47;101544.55;1752237;80;21189;-74
2022/07/17 07:03:20;;;;;;;;;;;;;;;15.90;60.42;101539.94;1748515;80;20173;-77
2022/07/17 07:05:47;;;;;;;;;;;;;;;15.95;60.42;101541.94;1768356;80;20430;-73
2022/07/17 07:08:14;;;;;;;;;;;;;;;16.06;60.17;101546.78;1748317;80;20191;-73
2022/07/17 07:10:42;;;;;;;;;;;;;;;16.08;59.74;101544.94;1751382;80;21684;-76
2022/07/17 07:13:10;;;;;;;;;;;;;;;16.11;59.73;101547.45;1748407;80;21229;-75
2022/07/17 07:15:36;;;;;;;;;;;;;;;16.18;59.65;101552.02;1748369;80;20199;-74
2022/07/17 07:18:03;;;;;;;;;;;;;;;16.26;59.48;101556.05;1752964;80;20149;-73
2022/07/17 07:20:31;;;;;;;;;;;;;;;16.32;59.31;101544.34;1748320;80;20469;-76
2022/07/17 07:22:58;;;;;;;;;;;;;;;16.40;59.40;101537.41;1748601;80;21098;-72
2022/07/17 07:25:27;;;;;;;;;;;;;;;16.49;59.22;101539.67;1748272;80;21183;-72
2022/07/17 07:27:54;;;;;;;;;;;;;;;16.55;58.91;101540.72;1755838;80;20192;-79
2022/07/17 07:30:21;;;;;;;;;;;;;;;16.60;58.61;101542.71;1751740;80;20488;-74
2022/07/17 07:32:48;;;;;;;;;;;;;;;16.68;58.81;101544.99;1758271;80;20187;-72
2022/07/17 07:35:14;;;;;;;;;;;;;;;16.79;58.76;101546.73;1761621;80;20523;-73
2022/07/17 07:37:41;;;;;;;;;;;;;;;16.90;58.29;101538.31;1756351;80;21203;-72
2022/07/17 07:40:09;;;;;;;;;;;;;;;16.94;58.09;101536.78;1763707;80;20802;-72
2022/07/17 07:42:36;;;;;;;;;;;;;;;17.07;57.98;101538.86;1755800;80;20207;-72
2022/07/17 07:45:03;;;;;;;;;;;;;;;17.19;57.96;101540.96;1763130;80;20797;-80
2022/07/17 07:47:29;;;;;;;;;;;;;;;17.31;57.68;101542.17;1755919;80;20520;-73
2022/07/17 07:49:56;;;;;;;;;;;;;;;17.37;57.28;101542.73;1762719;80;21113;-74
2022/07/17 07:52:23;;;;;;;;;;;;;;;17.44;57.08;101538.48;1755047;80;20197;-72
2022/07/17 07:54:50;;;;;;;;;;;;;;;17.50;57.00;101540.37;1753939;80;20188;-71
2022/07/17 07:57:16;;;;;;;;;;;;;;;17.62;56.83;101550.84;1773235;80;20434;-73
2022/07/17 07:59:43;;;;;;;;;;;;;;;17.69;56.69;101542.14;1756819;80;20602;-72
2022/07/17 08:02:11;;;;;;;;;;;;;;;17.71;56.26;101543.79;1747919;80;21995;-72
2022/07/17 08:04:37;;;;;;;;;;;;;;;17.74;56.25;101548.94;1758853;80;20192;-81
2022/07/17 08:07:04;;;;;;;;;;;;;;;17.77;56.20;101538.65;1747568;80;20492;-72
2022/07/17 08:09:30;;;;;;;;;;;;;;;17.80;55.76;101543.36;1768971;80;20161;-72
2022/07/17 08:11:57;;;;;;;;;;;;;;;17.79;55.59;101552.27;1748981;80;20566;-72
2022/07/17 08:14:24;;;;;;;;;;;;;;;17.85;55.72;101557.73;1748828;80;21127;-72
2022/07/17 08:16:52;;;;;;;;;;;;;;;17.90;55.31;101550.85;1753373;79;20195;-72
2022/07/17 08:19:18;;;;;;;;;;;;;;;17.92;55.12;101557.80;1748017;80;20181;-72
2022/07/17 08:21:45;;;;;;;;;;;;;;;17.94;54.84;101572.33;1748698;80;20156;-72
2022/07/17 08:24:12;;;;;;;;;;;;;;;17.90;54.68;101566.30;1748826;80;20666;-73
2022/07/17 08:26:38;;;;;;;;;;;;;;;17.92;54.55;101576.84;1749077;80;21106;-72
2022/07/17 08:29:05;;;;;;;;;;;;;;;17.98;54.54;101570.75;1748822;80;20133;-72
2022/07/17 08:31:32;;;;;;;;;;;;;;;18.11;54.32;101575.47;1778554;80;20202;-72
2022/07/17 08:33:58;;;;;;;;;;;;;;;18.22;54.41;101568.69;1779915;80;20162;-72
2022/07/17 08:36:25;;;;;;;;;;;;;;;18.36;54.44;101569.78;1779565;78;20500;-73
2022/07/17 08:38:52;;;;;;;;;;;;;;;18.45;54.01;101566.17;1779533;80;21081;-72
2022/07/17 08:41:22;;;;;;;;;;;;;;;18.47;53.64;101576.73;1779531;80;20147;-72
2022/07/17 08:43:48;;;;;;;;;;;;;;;18.52;53.44;101568.54;1779533;79;20439;-72
2022/07/17 08:46:16;;;;;;;;;;;;;;;18.64;53.30;101567.89;1779590;80;20163;-72
2022/07/17 08:48:45;;;;;;;;;;;;;;;18.75;53.05;101568.21;1769809;80;20483;-72
2022/07/17 08:51:12;;;;;;;;;;;;;;;18.82;52.40;101568.77;1768650;80;21955;-73
2022/07/17 08:53:40;;;;;;;;;;;;;;;18.88;52.36;101579.91;1779879;80;20123;-73
2022/07/17 08:56:07;;;;;;;;;;;;;;;18.91;51.98;101573.11;1779683;80;20143;-73
2022/07/17 08:58:34;;;;;;;;;;;;;;;19.00;52.15;101578.87;1779853;80;20178;-73
2022/07/17 09:01:01;;;;;;;;;;;;;;;19.01;51.76;101584.56;1779617;80;20491;-73
2022/07/17 09:03:28;;;;;;;;;;;;;;;19.07;51.80;101588.23;1779937;80;21152;-73
2022/07/17 09:05:55;;;;;;;;;;;;;;;19.07;50.93;101592.23;1779689;80;20166;-73
2022/07/17 09:08:23;;;;;;;;;;;;;;;19.08;50.81;101568.69;1779767;80;20142;-73
2022/07/17 09:10:52;;;;;;;;;;;;;;;19.19;50.64;101562.80;1779669;80;20206;-73
2022/07/17 09:13:25;;;;;;;;;;;;;;;19.23;50.56;101568.31;1779901;80;20462;-73
2022/07/17 09:15:53;;;;;;;;;;;;;;;19.30;50.31;101571.03;1779625;80;21079;-73
2022/07/17 09:18:21;;;;;;;;;;;;;;;19.31;50.13;101576.25;1779590;80;20177;-73
2022/07/17 09:20:50;;;;;;;;;;;;;;;19.34;50.07;101569.91;1779625;80;20177;-73
2022/07/17 09:23:18;;;;;;;;;;;;;;;19.44;50.19;101580.91;1779330;79;20462;-73
2022/07/17 09:25:49;;;;;;;;;;;;;;;19.53;49.84;101568.42;1779568;80;20553;-73
2022/07/17 09:28:16;;;;;;;;;;;;;;;19.52;49.36;101576.02;1770667;80;21012;-73
2022/07/17 09:30:46;;;;;;;;;;;;;;;19.53;49.30;101569.27;1768032;80;20189;-73
2022/07/17 09:33:17;;;;;;;;;;;;;;;19.63;49.53;101573.62;1780021;80;20447;-73
2022/07/17 09:35:52;;;;;;;;;;;;;;;19.69;49.20;101565.31;1779808;80;20197;-73
2022/07/17 09:38:31;;;;;;;;;;;;;;;19.76;49.26;101582.66;1783181;80;21391;-73
2022/07/17 09:41:13;;;;;;;;;;;;;;;19.77;48.89;101572.87;1784952;80;21919;-73
2022/07/17 09:43:52;;;;;;;;;;;;;;;19.84;48.73;101566.23;1764807;80;20245;-73
2022/07/17 09:46:21;;;;;;;;;;;;;;;19.95;48.72;101566.95;1784961;79;20130;-72
2022/07/17 09:48:53;;;;;;;;;;;;;;;19.99;48.37;101576.01;1785345;80;20162;-73
2022/07/17 09:51:22;;;;;;;;;;;;;;;19.92;48.16;101567.98;1784989;80;20488;-73
2022/07/17 09:53:51;;;;;;;;;;;;;;;19.90;48.04;101568.56;1764120;80;21158;-73
2022/07/17 09:56:19;;;;;;;;;;;;;;;19.91;47.86;101570.27;1784847;80;20403;-73
2022/07/17 09:58:48;;;;;;;;;;;;;;;19.92;47.82;101562.66;1785037;80;20173;-73
2022/07/17 10:01:18;;;;;;;;;;;;;;;19.93;47.83;101563.06;1784920;79;20134;-73
2022/07/17 10:03:45;;;;;;;;;;;;;;;20.00;47.72;101559.56;1784965;80;20545;-73
2022/07/17 10:06:11;;;;;;;;;;;;;;;20.11;47.62;101561.59;1784939;80;20983;-73
2022/07/17 10:08:39;;;;;;;;;;;;;;;20.14;47.52;101560.94;1784865;79;20272;-73
2022/07/17 10:11:07;;;;;;;;;;;;;;;20.31;47.52;101573.25;1784923;80;20130;-73
2022/07/17 10:13:38;;;;;;;;;;;;;;;20.43;46.85;101559.70;1784971;79;20189;-73
2022/07/17 10:16:05;;;;;;;;;;;;;;;20.54;46.72;101553.77;1784078;79;20418;-73
2022/07/17 10:18:41;;;;;;;;;;;;;;;20.60;46.39;101557.38;1784956;80;21059;-73
2022/07/17 10:21:19;;;;;;;;;;;;;;;20.62;46.48;101555.49;1784872;80;20197;-73
2022/07/17 10:23:49;;;;;;;;;;;;;;;20.79;46.38;101555.78;1785005;79;20178;-73
2022/07/17 10:26:17;;;;;;;;;;;;;;;20.96;46.13;101560.92;1783426;79;20126;-73
2022/07/17 10:28:46;;;;;;;;;;;;;;;21.12;45.79;101560.83;1769815;80;20512;-73
2022/07/17 10:31:28;;;;;;;;;;;;;;;21.22;45.55;101555.75;1779482;80;21156;-73
2022/07/17 10:33:59;;;;;;;;;;;;;;;21.27;45.31;101550.98;1784839;79;20431;-73
2022/07/17 10:36:40;;;;;;;;;;;;;;;21.48;45.27;101556.80;1785027;79;20177;-73
2022/07/17 10:39:21;;;;;;;;;;;;;;;21.68;45.26;101554.17;1780450;78;20128;-73
2022/07/17 10:41:58;;;;;;;;;;;;;;;22.02;44.95;101548.77;1779745;80;21314;-73
2022/07/17 10:44:27;;;;;;;;;;;;;;;22.29;44.48;101552.77;1779951;80;21080;-73
2022/07/17 10:46:55;;;;;;;;;;;;;;;22.58;44.06;101552.58;1779413;80;20186;-73
2022/07/17 10:49:23;;;;;;;;;;;;;;;22.72;43.51;101553.80;1779951;80;20306;-73
2022/07/17 10:51:50;;;;;;;;;;;;;;;22.85;43.12;101553.32;1779660;80;20150;-73
2022/07/17 10:54:19;;;;;;;;;;;;;;;22.81;42.74;101553.17;1779807;80;20338;-73
2022/07/17 10:56:47;;;;;;;;;;;;;;;22.71;42.55;101555.63;1779993;80;21180;-73
2022/07/17 10:59:14;;;;;;;;;;;;;;;22.80;42.65;101552.78;1779600;80;20193;-73
2022/07/17 11:01:40;;;;;;;;;;;;;;;22.97;42.59;101540.92;1779875;80;20209;-73
2022/07/17 11:04:07;;;;;;;;;;;;;;;23.06;42.17;101538.11;1779754;80;20142;-73
2022/07/17 11:06:36;;;;;;;;;;;;;;;23.33;41.96;101542.80;1779921;80;20531;-73
2022/07/17 11:09:08;;;;;;;;;;;;;;;23.56;41.61;101541.59;1779672;80;21166;-73
2022/07/17 11:11:42;;;;;;;;;;;;;;;23.76;41.24;101540.99;1780095;80;20162;-73
2022/07/17 11:14:18;;;;;;;;;;;;;;;23.95;41.10;101537.80;1779600;80;20394;-73
2022/07/17 11:16:48;;;;;;;;;;;;;;;24.10;40.80;101541.13;1779736;80;20138;-73
2022/07/17 11:19:33;;;;;;;;;;;;;;;24.15;40.35;101535.42;1779829;80;20869;-73
2022/07/17 11:22:03;;;;;;;;;;;;;;;24.28;40.10;101533.52;1758291;80;21978;-73
2022/07/17 11:24:49;;;;;;;;;;;;;;;24.43;40.29;101531.01;1779575;80;20182;-73
2022/07/17 11:27:25;;;;;;;;;;;;;;;24.55;39.86;101530.53;1780032;80;20514;-73
2022/07/17 11:29:53;;;;;;;;;;;;;;;24.83;40.00;101532.37;1750338;79;20373;-73
2022/07/17 11:32:20;;;;;;;;;;;;;;;24.87;39.11;101528.00;1779919;80;20483;-73
2022/07/17 11:34:47;;;;;;;;;;;;;;;24.97;39.22;101521.89;1779664;80;21996;-73
2022/07/17 11:37:13;;;;;;;;;;;;;;;25.10;38.90;101532.01;1779798;80;20845;-73
2022/07/17 11:39:48;;;;;;;;;;;;;;;25.23;38.74;101523.37;1779595;79;20177;-73
2022/07/17 11:42:20;;;;;;;;;;;;;;;25.32;38.33;101527.12;1779925;80;20164;-73
2022/07/17 11:44:51;;;;;;;;;;;;;;;25.31;37.83;101537.52;1779592;80;20486;-73
2022/07/17 11:47:28;;;;;;;;;;;;;;;25.20;37.72;101534.85;1769514;80;21159;-73
2022/07/17 11:50:13;;;;;;;;;;;;;;;25.36;37.74;101532.63;1779554;80;20471;-73
2022/07/17 11:52:43;;;;;;;;;;;;;;;25.48;37.71;101526.23;1769267;80;20129;-74
2022/07/17 11:55:11;;;;;;;;;;;;;;;25.56;37.23;101537.70;1779661;80;20166;-73
2022/07/17 11:57:46;;;;;;;;;;;;;;;25.65;37.26;101538.27;1779616;80;20444;-73
2022/07/17 12:00:16;;;;;;;;;;;;;;;25.64;36.65;101535.23;1779504;80;21108;-73
2022/07/17 12:02:43;;;;;;;;;;;;;;;25.60;36.87;101542.66;1778250;79;20130;-73
2022/07/17 12:05:11;;;;;;;;;;;;;;;25.70;36.83;101533.38;1779218;80;20174;-73
2022/07/17 12:07:46;;;;;;;;;;;;;;;25.80;36.50;101534.78;1779727;80;20236;-73
2022/07/17 12:10:21;;;;;;;;;;;;;;;25.72;36.53;101528.73;1779604;80;20546;-73
2022/07/17 12:13:07;;;;;;;;;;;;;;;25.75;36.51;101531.16;1779593;80;21282;-73
2022/07/17 12:15:44;;;;;;;;;;;;;;;25.86;36.63;101526.77;1779598;80;20178;-73
2022/07/17 12:18:29;;;;;;;;;;;;;;;25.93;36.40;101526.59;1779825;80;20392;-73
2022/07/17 12:20:59;;;;;;;;;;;;;;;25.92;36.44;101532.47;1779502;80;20193;-73
2022/07/17 12:23:38;;;;;;;;;;;;;;;25.81;35.98;101522.59;1779645;80;20438;-73
2022/07/17 12:26:16;;;;;;;;;;;;;;;25.66;35.85;101523.84;1779648;80;21210;-73
2022/07/17 12:28:39;;;;;;;;;;;;;;;25.45;35.77;101522.47;1764532;79;20160;-73
2022/07/17 12:31:08;;;;;;;;;;;;;;;25.39;35.68;101527.00;1744699;80;20131;-76
2022/07/17 12:33:34;;;;;;;;;;;;;;;25.26;35.66;101514.22;1767764;80;20464;-78
2022/07/17 12:36:01;;;;;;;;;;;;;;;25.06;35.26;101524.70;1748571;80;20567;-74
2022/07/17 12:38:28;;;;;;;;;;;;;;;24.90;35.52;101533.12;1753464;80;21096;-77
2022/07/17 12:40:55;;;;;;;;;;;;;;;24.93;35.26;101519.95;1755627;79;20200;-76